MSC Vienna — A8CI9 — position and weather

sailwx.info

Track history (hours):
 
Tides and Currents Weather Stations Pressure Air Temp Water Temp Dewpoint Dewpoint Depression Visibility Wind Speed Wind Dir Waves Ship Positions

MSC Vienna

Last reported at 2017-Aug-20 11:29 UTC. Time now 2017-Aug-20 11:41 UTC.
Position N 36°49' E 013°45'.

Length 260.1 m; beam 32.2 m; draft 12 m.

Type: Ship (hazmat cat A). MMSI: 636090654.

Date/timePositionNaut miles runAvg speedWind from/ knotsBaromVisibWave heightAir tempDewpointWater temp
2017-Aug-20 11:29N 36°49' E 013°45'1020.0
2017-Aug-20 11:00N 36°53' E 013°34'1020.0
2017-Aug-20 10:30N 36°59' E 013°24'1120.3
2017-Aug-20 09:56N 37°04' E 013°11'1320.5
2017-Aug-20 09:17N 37°10' E 012°56'4619.7
2017-Aug-20 06:55N 37°36' E 012°07'1319.6
2017-Aug-20 06:15N 37°43' E 011°53'519.6
2017-Aug-20 06:00N 37°46' E 011°48'919.5
2017-Aug-20 05:30N 37°51' E 011°38'1019.7
2017-Aug-20 05:00N 37°56' E 011°27'1019.8
2017-Aug-20 04:30N 38°02' E 011°17'1019.5
2017-Aug-20 04:00N 38°07' E 011°06'1019.7
2017-Aug-20 03:30N 38°12' E 010°56'1019.6
2017-Aug-20 03:00N 38°18' E 010°45'5519.2
2017-Aug-20 00:07N 38°48' E 009°46'419.4
2017-Aug-19 23:56N 38°50' E 009°42'252 8.3
2017-Aug-18 17:32N 37°46' E 004°31'117.7
2017-Aug-18 17:30N 37°46' E 004°30'8317.2
2017-Aug-18 12:39N 37°25' E 002°49'317.0
2017-Aug-18 12:29N 37°24' E 002°45'2416.9
2017-Aug-18 11:05N 37°18' E 002°16'116.9
2017-Aug-18 11:00N 37°18' E 002°15'816.9
2017-Aug-18 10:30N 37°15' E 002°04'12717.7
2017-Aug-18 03:20N 36°43' W 000°29'718.1
2017-Aug-18 02:56N 36°42' W 000°38'3118.2
2017-Aug-18 01:13N 36°33' W 001°16'28118.5
2017-Aug-17 10:02N 36°05' W 007°03'118.4
2017-Aug-17 10:00N 36°05' W 007°04'3718.5
2017-Aug-17 07:58N 36°14' W 007°49'1219.1
2017-Aug-17 07:21N 36°17' W 008°03'14117.7
2017-Aug-16 23:21N 38°05' W 009°57'1119.5
2017-Aug-16 22:46N 38°16' W 010°01'619.7
2017-Aug-16 22:29N 38°22' W 010°03'2120.0
2017-Aug-16 21:27N 38°42' W 010°07'1620.0
2017-Aug-16 20:40N 38°58' W 010°07'319.5
2017-Aug-16 20:30N 39°01' W 010°07'1019.9
2017-Aug-16 20:00N 39°11' W 010°07'1120.3
2017-Aug-16 19:29N 39°22' W 010°06'1020.2
2017-Aug-16 19:00N 39°31' W 010°06'1020.4
2017-Aug-16 18:30N 39°42' W 010°06'1020.5
2017-Aug-16 18:00N 39°52' W 010°06'3520.0
2017-Aug-16 16:14N 40°27' W 010°06'520.5
2017-Aug-16 15:58N 40°32' W 010°06'60518.6
2017-Aug-15 07:23N 49°37' W 003°52'819.8
2017-Aug-15 06:59N 49°41' W 003°42'1020.2
2017-Aug-15 06:30N 49°46' W 003°29'1020.3
2017-Aug-15 06:00N 49°50' W 003°15'1020.8
2017-Aug-15 05:30N 49°55' W 003°01'1020.8
2017-Aug-15 05:00N 49°60' W 002°46'3719.7
2017-Aug-15 03:07N 50°10' W 001°50'218.5
2017-Aug-15 03:00N 50°10' W 001°47'1117.9
2017-Aug-15 02:25N 50°13' W 001°31'717.4
2017-Aug-15 02:00N 50°15' W 001°20'917.1
2017-Aug-15 01:30N 50°17' W 001°07'916.8
2017-Aug-15 00:58N 50°20' W 000°54'1717.2
2017-Aug-14 23:59N 50°24' W 000°28'918.1
2017-Aug-14 23:30N 50°27' W 000°15'918.8
2017-Aug-14 23:00N 50°29' W 000°01'1019.5
2017-Aug-14 22:30N 50°32' E 000°14'1020.2
2017-Aug-14 22:00N 50°36' E 000°29'1020.4
2017-Aug-14 21:30N 50°40' E 000°44'1020.6
2017-Aug-14 21:00N 50°46' E 000°57'1121.2
2017-Aug-14 20:30N 50°52' E 001°10'919.0
2017-Aug-14 20:00N 50°58' E 001°22'919.0
2017-Aug-14 19:30N 51°05' E 001°32'918.2
2017-Aug-14 19:00N 51°11' E 001°43'917.9
2017-Aug-14 18:30N 51°18' E 001°52'917.7
2017-Aug-14 18:00N 51°26' E 001°57'917.8
2017-Aug-14 17:30N 51°33' E 002°07'1018.0
2017-Aug-14 16:55N 51°41' E 002°18'718.3
2017-Aug-14 16:30N 51°46' E 002°26'6020.0
2017-Aug-14 13:30N 52°34' E 003°26'20417.7
2017-Aug-14 02:01N 53°58' E 008°37'015.4
2017-Aug-14 01:59N 53°57' E 008°37'713.3
2017-Aug-14 01:30N 53°52' E 008°44'714.1
2017-Aug-14 01:00N 53°51' E 008°56'816.4
2017-Aug-14 00:30N 53°53' E 009°09'612.9
2017-Aug-14 00:00N 53°51' E 009°19'815.6
2017-Aug-13 23:30N 53°44' E 009°26'612.5
2017-Aug-13 23:00N 53°39' E 009°31'612.7
2017-Aug-13 22:30N 53°34' E 009°39'510.7
2017-Aug-13 22:01N 53°33' E 009°48'4 8.2
2017-Aug-13 21:30N 53°32' E 009°55'0 0.2
2017-Aug-13 21:00N 53°32' E 009°55'0 0.0
2017-Aug-13 20:30N 53°32' E 009°55'0 0.0
2017-Aug-13 20:01N 53°32' E 009°55'0 0.0
2017-Aug-13 19:30N 53°32' E 009°55'0 0.0
2017-Aug-13 18:54N 53°32' E 009°55'0 0.0
2017-Aug-13 18:30N 53°32' E 009°55'0 0.0
2017-Aug-13 17:57N 53°32' E 009°55'0 0.0
2017-Aug-13 17:31N 53°32' E 009°55'0 0.0
2017-Aug-13 17:01N 53°32' E 009°55'0 0.0
2017-Aug-13 16:27N 53°32' E 009°55'0 0.0
2017-Aug-13 16:00N 53°32' E 009°55'0 0.0
2017-Aug-13 15:30N 53°32' E 009°55'0 0.0
2017-Aug-13 15:00N 53°32' E 009°55'0 0.0
2017-Aug-13 14:31N 53°32' E 009°55'0 0.0
2017-Aug-13 14:00N 53°32' E 009°55'0 0.0
2017-Aug-13 13:27N 53°32' E 009°55'0 0.0
2017-Aug-13 13:00N 53°32' E 009°55'0 0.0
2017-Aug-13 12:30N 53°32' E 009°55'0 0.0
2017-Aug-13 12:00N 53°32' E 009°55'0 0.0
2017-Aug-13 11:30N 53°32' E 009°55'0 0.0
2017-Aug-13 11:00N 53°32' E 009°55'0 0.0
2017-Aug-13 10:30N 53°32' E 009°55'0 0.0
2017-Aug-13 10:01N 53°32' E 009°55'0 0.0
2017-Aug-13 09:30N 53°32' E 009°55'0 0.0
2017-Aug-13 09:00N 53°32' E 009°55'0 0.0
2017-Aug-13 08:31N 53°32' E 009°55'0 0.0
2017-Aug-13 08:00N 53°32' E 009°55'0 0.0
2017-Aug-13 07:30N 53°32' E 009°55'0 0.0
2017-Aug-13 07:01N 53°32' E 009°55'0 0.0
2017-Aug-13 06:30N 53°32' E 009°55'0 0.0
2017-Aug-13 05:54N 53°32' E 009°55'0 0.0
2017-Aug-13 05:30N 53°32' E 009°55'0 0.0
2017-Aug-13 05:00N 53°32' E 009°55'0 0.0
2017-Aug-13 04:31N 53°32' E 009°55'0 0.0
2017-Aug-13 04:00N 53°32' E 009°55'0 0.0
2017-Aug-13 03:30N 53°32' E 009°55'0 0.0
2017-Aug-13 03:00N 53°32' E 009°55'0 0.0
2017-Aug-13 02:31N 53°32' E 009°55'0 0.0
2017-Aug-13 02:00N 53°32' E 009°55'0 0.0
2017-Aug-13 01:30N 53°32' E 009°55'0 0.0
2017-Aug-13 01:01N 53°32' E 009°55'0 0.0
2017-Aug-13 00:30N 53°32' E 009°55'0 0.0
2017-Aug-13 00:00N 53°32' E 009°55'0 0.0
2017-Aug-12 23:30N 53°32' E 009°55'0 0.0
2017-Aug-12 23:01N 53°32' E 009°55'0 0.0
2017-Aug-12 22:30N 53°32' E 009°55'0 0.0
2017-Aug-12 22:00N 53°32' E 009°55'0 0.0
2017-Aug-12 21:31N 53°32' E 009°55'0 0.0
2017-Aug-12 21:00N 53°32' E 009°55'0 0.0
2017-Aug-12 20:30N 53°32' E 009°55'0 0.0
2017-Aug-12 20:00N 53°32' E 009°55'0 0.0
2017-Aug-12 19:30N 53°32' E 009°55'0 0.0
2017-Aug-12 19:00N 53°32' E 009°55'0 0.0
2017-Aug-12 18:31N 53°32' E 009°55'0 0.0
2017-Aug-12 18:01N 53°32' E 009°55'0 0.0
2017-Aug-12 17:30N 53°32' E 009°55'1 1.6
2017-Aug-12 17:00N 53°32' E 009°53'4 8.0
2017-Aug-12 16:30N 53°33' E 009°47'611.4
2017-Aug-12 16:01N 53°35' E 009°37'613.0
2017-Aug-12 15:31N 53°40' E 009°31'714.2
2017-Aug-12 15:01N 53°46' E 009°24'816.0
2017-Aug-12 14:31N 53°52' E 009°16'713.5
2017-Aug-12 14:01N 53°52' E 009°04'1019.8
2017-Aug-12 13:30N 53°50' E 008°48'816.8
2017-Aug-12 13:00N 53°57' E 008°38'1020.4
2017-Aug-12 12:30N 53°59' E 008°22'815.9
2017-Aug-12 12:00N 53°60' E 008°08'2 2.6
2017-Aug-12 11:20N 53°60' E 008°05'2 6.8
2017-Aug-12 11:00N 53°58' E 008°02'5 9.2
2017-Aug-12 10:30N 53°57' E 007°54'4 9.0
2017-Aug-12 10:00N 53°56' E 007°47'90 7.7
2017-Aug-11 22:18N 53°33' E 005°21'3 9.1
2017-Aug-11 21:57N 53°31' E 005°16'4 9.2
2017-Aug-11 21:30N 53°30' E 005°09'5 9.8
2017-Aug-11 21:00N 53°29' E 005°01'510.0
2017-Aug-11 20:30N 53°27' E 004°53'80 7.6
2017-Aug-11 09:55N 52°23' E 003°32'3 6.1
2017-Aug-11 09:28N 52°20' E 003°31'815.7
2017-Aug-11 08:57N 52°12' E 003°28'0 0.0
2017-Aug-11 08:30N 52°12' E 003°28'1 3.0
2017-Aug-11 08:00N 52°11' E 003°28'34 8.6
2017-Aug-11 04:05N 51°37' E 003°22'213.7
2017-Aug-11 03:57N 51°36' E 003°23'817.6
2017-Aug-11 03:30N 51°29' E 003°30'612.6
2017-Aug-11 03:00N 51°26' E 003°39'714.0
2017-Aug-11 02:30N 51°21' E 003°47'713.2
2017-Aug-11 02:00N 51°23' E 003°57'4 7.8
2017-Aug-11 01:30N 51°23' E 004°03'611.9
2017-Aug-11 01:00N 51°24' E 004°12'510.0
2017-Aug-11 00:30N 51°20' E 004°16'2 3.0
2017-Aug-10 23:54N 51°18' E 004°16'0 0.0
2017-Aug-10 23:27N 51°18' E 004°16'0 0.0
2017-Aug-10 22:54N 51°18' E 004°16'0 0.0
2017-Aug-10 22:24N 51°18' E 004°16'0 0.0
2017-Aug-10 21:57N 51°18' E 004°16'0 0.0
2017-Aug-10 21:21N 51°18' E 004°16'0 0.0
2017-Aug-10 21:00N 51°18' E 004°16'0 0.0
2017-Aug-10 20:27N 51°18' E 004°16'0 0.0
2017-Aug-10 19:51N 51°18' E 004°16'0 0.0
2017-Aug-10 19:15N 51°18' E 004°16'0 0.0
2017-Aug-10 19:00N 51°18' E 004°16'0 0.0
2017-Aug-10 18:15N 51°18' E 004°16'0 0.0
2017-Aug-10 18:00N 51°18' E 004°16'0 0.0
2017-Aug-10 17:27N 51°18' E 004°16'0 0.0
2017-Aug-10 16:54N 51°18' E 004°16'0 0.0
2017-Aug-10 16:30N 51°18' E 004°16'0 0.0
2017-Aug-10 15:57N 51°18' E 004°16'0 0.0
2017-Aug-10 15:30N 51°18' E 004°16'0 0.0
2017-Aug-10 14:54N 51°18' E 004°16'0 0.0
2017-Aug-10 14:27N 51°18' E 004°16'0 0.0
2017-Aug-10 13:57N 51°18' E 004°16'0 0.0
2017-Aug-10 13:24N 51°18' E 004°16'0 0.0
2017-Aug-10 11:30N 51°18' E 004°16'  
Track history (hours):
 
Tides and Currents Weather Stations Pressure Air Temp Water Temp Dewpoint Dewpoint Depression Visibility Wind Speed Wind Dir Waves Ship Positions

MSC Vienna

Last reported at 2017-Aug-20 11:29 UTC. Time now 2017-Aug-20 11:41 UTC.
Position N 36°49' E 013°45'.

Length 260.1 m; beam 32.2 m; draft 12 m.

Type: Ship (hazmat cat A). MMSI: 636090654.

Date/timePositionNaut miles runAvg speedWind from/ knotsBaromVisibWave heightAir tempDewpointWater temp
2017-Aug-20 11:29N 36°49' E 013°45'1020.0
2017-Aug-20 11:00N 36°53' E 013°34'1020.0
2017-Aug-20 10:30N 36°59' E 013°24'1120.3
2017-Aug-20 09:56N 37°04' E 013°11'1320.5
2017-Aug-20 09:17N 37°10' E 012°56'4619.7
2017-Aug-20 06:55N 37°36' E 012°07'1319.6
2017-Aug-20 06:15N 37°43' E 011°53'519.6
2017-Aug-20 06:00N 37°46' E 011°48'919.5
2017-Aug-20 05:30N 37°51' E 011°38'1019.7
2017-Aug-20 05:00N 37°56' E 011°27'1019.8
2017-Aug-20 04:30N 38°02' E 011°17'1019.5
2017-Aug-20 04:00N 38°07' E 011°06'1019.7
2017-Aug-20 03:30N 38°12' E 010°56'1019.6
2017-Aug-20 03:00N 38°18' E 010°45'5519.2
2017-Aug-20 00:07N 38°48' E 009°46'419.4
2017-Aug-19 23:56N 38°50' E 009°42'252 8.3
2017-Aug-18 17:32N 37°46' E 004°31'117.7
2017-Aug-18 17:30N 37°46' E 004°30'8317.2
2017-Aug-18 12:39N 37°25' E 002°49'317.0
2017-Aug-18 12:29N 37°24' E 002°45'2416.9
2017-Aug-18 11:05N 37°18' E 002°16'116.9
2017-Aug-18 11:00N 37°18' E 002°15'816.9
2017-Aug-18 10:30N 37°15' E 002°04'12717.7
2017-Aug-18 03:20N 36°43' W 000°29'718.1
2017-Aug-18 02:56N 36°42' W 000°38'3118.2
2017-Aug-18 01:13N 36°33' W 001°16'28118.5
2017-Aug-17 10:02N 36°05' W 007°03'118.4
2017-Aug-17 10:00N 36°05' W 007°04'3718.5
2017-Aug-17 07:58N 36°14' W 007°49'1219.1
2017-Aug-17 07:21N 36°17' W 008°03'14117.7
2017-Aug-16 23:21N 38°05' W 009°57'1119.5
2017-Aug-16 22:46N 38°16' W 010°01'619.7
2017-Aug-16 22:29N 38°22' W 010°03'2120.0
2017-Aug-16 21:27N 38°42' W 010°07'1620.0
2017-Aug-16 20:40N 38°58' W 010°07'319.5
2017-Aug-16 20:30N 39°01' W 010°07'1019.9
2017-Aug-16 20:00N 39°11' W 010°07'1120.3
2017-Aug-16 19:29N 39°22' W 010°06'1020.2
2017-Aug-16 19:00N 39°31' W 010°06'1020.4
2017-Aug-16 18:30N 39°42' W 010°06'1020.5
2017-Aug-16 18:00N 39°52' W 010°06'3520.0
2017-Aug-16 16:14N 40°27' W 010°06'520.5
2017-Aug-16 15:58N 40°32' W 010°06'60518.6
2017-Aug-15 07:23N 49°37' W 003°52'819.8
2017-Aug-15 06:59N 49°41' W 003°42'1020.2
2017-Aug-15 06:30N 49°46' W 003°29'1020.3
2017-Aug-15 06:00N 49°50' W 003°15'1020.8
2017-Aug-15 05:30N 49°55' W 003°01'1020.8
2017-Aug-15 05:00N 49°60' W 002°46'3719.7
2017-Aug-15 03:07N 50°10' W 001°50'218.5
2017-Aug-15 03:00N 50°10' W 001°47'1117.9
2017-Aug-15 02:25N 50°13' W 001°31'717.4
2017-Aug-15 02:00N 50°15' W 001°20'917.1
2017-Aug-15 01:30N 50°17' W 001°07'916.8
2017-Aug-15 00:58N 50°20' W 000°54'1717.2
2017-Aug-14 23:59N 50°24' W 000°28'918.1
2017-Aug-14 23:30N 50°27' W 000°15'918.8
2017-Aug-14 23:00N 50°29' W 000°01'1019.5
2017-Aug-14 22:30N 50°32' E 000°14'1020.2
2017-Aug-14 22:00N 50°36' E 000°29'1020.4
2017-Aug-14 21:30N 50°40' E 000°44'1020.6
2017-Aug-14 21:00N 50°46' E 000°57'1121.2
2017-Aug-14 20:30N 50°52' E 001°10'919.0
2017-Aug-14 20:00N 50°58' E 001°22'919.0
2017-Aug-14 19:30N 51°05' E 001°32'918.2
2017-Aug-14 19:00N 51°11' E 001°43'917.9
2017-Aug-14 18:30N 51°18' E 001°52'917.7
2017-Aug-14 18:00N 51°26' E 001°57'917.8
2017-Aug-14 17:30N 51°33' E 002°07'1018.0
2017-Aug-14 16:55N 51°41' E 002°18'718.3
2017-Aug-14 16:30N 51°46' E 002°26'6020.0
2017-Aug-14 13:30N 52°34' E 003°26'20417.7
2017-Aug-14 02:01N 53°58' E 008°37'015.4
2017-Aug-14 01:59N 53°57' E 008°37'713.3
2017-Aug-14 01:30N 53°52' E 008°44'714.1
2017-Aug-14 01:00N 53°51' E 008°56'816.4
2017-Aug-14 00:30N 53°53' E 009°09'612.9
2017-Aug-14 00:00N 53°51' E 009°19'815.6
2017-Aug-13 23:30N 53°44' E 009°26'612.5
2017-Aug-13 23:00N 53°39' E 009°31'612.7
2017-Aug-13 22:30N 53°34' E 009°39'510.7
2017-Aug-13 22:01N 53°33' E 009°48'4 8.2
2017-Aug-13 21:30N 53°32' E 009°55'0 0.2
2017-Aug-13 21:00N 53°32' E 009°55'0 0.0
2017-Aug-13 20:30N 53°32' E 009°55'0 0.0
2017-Aug-13 20:01N 53°32' E 009°55'0 0.0
2017-Aug-13 19:30N 53°32' E 009°55'0 0.0
2017-Aug-13 18:54N 53°32' E 009°55'0 0.0
2017-Aug-13 18:30N 53°32' E 009°55'0 0.0
2017-Aug-13 17:57N 53°32' E 009°55'0 0.0
2017-Aug-13 17:31N 53°32' E 009°55'0 0.0
2017-Aug-13 17:01N 53°32' E 009°55'0 0.0
2017-Aug-13 16:27N 53°32' E 009°55'0 0.0
2017-Aug-13 16:00N 53°32' E 009°55'0 0.0
2017-Aug-13 15:30N 53°32' E 009°55'0 0.0
2017-Aug-13 15:00N 53°32' E 009°55'0 0.0
2017-Aug-13 14:31N 53°32' E 009°55'0 0.0
2017-Aug-13 14:00N 53°32' E 009°55'0 0.0
2017-Aug-13 13:27N 53°32' E 009°55'0 0.0
2017-Aug-13 13:00N 53°32' E 009°55'0 0.0
2017-Aug-13 12:30N 53°32' E 009°55'0 0.0
2017-Aug-13 12:00N 53°32' E 009°55'0 0.0
2017-Aug-13 11:30N 53°32' E 009°55'0 0.0
2017-Aug-13 11:00N 53°32' E 009°55'0 0.0
2017-Aug-13 10:30N 53°32' E 009°55'0 0.0
2017-Aug-13 10:01N 53°32' E 009°55'0 0.0
2017-Aug-13 09:30N 53°32' E 009°55'0 0.0
2017-Aug-13 09:00N 53°32' E 009°55'0 0.0
2017-Aug-13 08:31N 53°32' E 009°55'0 0.0
2017-Aug-13 08:00N 53°32' E 009°55'0 0.0
2017-Aug-13 07:30N 53°32' E 009°55'0 0.0
2017-Aug-13 07:01N 53°32' E 009°55'0 0.0
2017-Aug-13 06:30N 53°32' E 009°55'0 0.0
2017-Aug-13 05:54N 53°32' E 009°55'0 0.0
2017-Aug-13 05:30N 53°32' E 009°55'0 0.0
2017-Aug-13 05:00N 53°32' E 009°55'0 0.0
2017-Aug-13 04:31N 53°32' E 009°55'0 0.0
2017-Aug-13 04:00N 53°32' E 009°55'0 0.0
2017-Aug-13 03:30N 53°32' E 009°55'0 0.0
2017-Aug-13 03:00N 53°32' E 009°55'0 0.0
2017-Aug-13 02:31N 53°32' E 009°55'0 0.0
2017-Aug-13 02:00N 53°32' E 009°55'0 0.0
2017-Aug-13 01:30N 53°32' E 009°55'0 0.0
2017-Aug-13 01:01N 53°32' E 009°55'0 0.0
2017-Aug-13 00:30N 53°32' E 009°55'0 0.0
2017-Aug-13 00:00N 53°32' E 009°55'0 0.0
2017-Aug-12 23:30N 53°32' E 009°55'0 0.0
2017-Aug-12 23:01N 53°32' E 009°55'0 0.0
2017-Aug-12 22:30N 53°32' E 009°55'0 0.0
2017-Aug-12 22:00N 53°32' E 009°55'0 0.0
2017-Aug-12 21:31N 53°32' E 009°55'0 0.0
2017-Aug-12 21:00N 53°32' E 009°55'0 0.0
2017-Aug-12 20:30N 53°32' E 009°55'0 0.0
2017-Aug-12 20:00N 53°32' E 009°55'0 0.0
2017-Aug-12 19:30N 53°32' E 009°55'0 0.0
2017-Aug-12 19:00N 53°32' E 009°55'0 0.0
2017-Aug-12 18:31N 53°32' E 009°55'0 0.0
2017-Aug-12 18:01N 53°32' E 009°55'0 0.0
2017-Aug-12 17:30N 53°32' E 009°55'1 1.6
2017-Aug-12 17:00N 53°32' E 009°53'4 8.0
2017-Aug-12 16:30N 53°33' E 009°47'611.4
2017-Aug-12 16:01N 53°35' E 009°37'613.0
2017-Aug-12 15:31N 53°40' E 009°31'714.2
2017-Aug-12 15:01N 53°46' E 009°24'816.0
2017-Aug-12 14:31N 53°52' E 009°16'713.5
2017-Aug-12 14:01N 53°52' E 009°04'1019.8
2017-Aug-12 13:30N 53°50' E 008°48'816.8
2017-Aug-12 13:00N 53°57' E 008°38'1020.4
2017-Aug-12 12:30N 53°59' E 008°22'815.9
2017-Aug-12 12:00N 53°60' E 008°08'2 2.6
2017-Aug-12 11:20N 53°60' E 008°05'2 6.8
2017-Aug-12 11:00N 53°58' E 008°02'5 9.2
2017-Aug-12 10:30N 53°57' E 007°54'4 9.0
2017-Aug-12 10:00N 53°56' E 007°47'90 7.7
2017-Aug-11 22:18N 53°33' E 005°21'3 9.1
2017-Aug-11 21:57N 53°31' E 005°16'4 9.2
2017-Aug-11 21:30N 53°30' E 005°09'5 9.8
2017-Aug-11 21:00N 53°29' E 005°01'510.0
2017-Aug-11 20:30N 53°27' E 004°53'80 7.6
2017-Aug-11 09:55N 52°23' E 003°32'3 6.1
2017-Aug-11 09:28N 52°20' E 003°31'815.7
2017-Aug-11 08:57N 52°12' E 003°28'0 0.0
2017-Aug-11 08:30N 52°12' E 003°28'1 3.0
2017-Aug-11 08:00N 52°11' E 003°28'34 8.6
2017-Aug-11 04:05N 51°37' E 003°22'213.7
2017-Aug-11 03:57N 51°36' E 003°23'817.6
2017-Aug-11 03:30N 51°29' E 003°30'612.6
2017-Aug-11 03:00N 51°26' E 003°39'714.0
2017-Aug-11 02:30N 51°21' E 003°47'713.2
2017-Aug-11 02:00N 51°23' E 003°57'4 7.8
2017-Aug-11 01:30N 51°23' E 004°03'611.9
2017-Aug-11 01:00N 51°24' E 004°12'510.0
2017-Aug-11 00:30N 51°20' E 004°16'2 3.0
2017-Aug-10 23:54N 51°18' E 004°16'0 0.0
2017-Aug-10 23:27N 51°18' E 004°16'0 0.0
2017-Aug-10 22:54N 51°18' E 004°16'0 0.0
2017-Aug-10 22:24N 51°18' E 004°16'0 0.0
2017-Aug-10 21:57N 51°18' E 004°16'0 0.0
2017-Aug-10 21:21N 51°18' E 004°16'0 0.0
2017-Aug-10 21:00N 51°18' E 004°16'0 0.0
2017-Aug-10 20:27N 51°18' E 004°16'0 0.0
2017-Aug-10 19:51N 51°18' E 004°16'0 0.0
2017-Aug-10 19:15N 51°18' E 004°16'0 0.0
2017-Aug-10 19:00N 51°18' E 004°16'0 0.0
2017-Aug-10 18:15N 51°18' E 004°16'0 0.0
2017-Aug-10 18:00N 51°18' E 004°16'0 0.0
2017-Aug-10 17:27N 51°18' E 004°16'0 0.0
2017-Aug-10 16:54N 51°18' E 004°16'0 0.0
2017-Aug-10 16:30N 51°18' E 004°16'0 0.0
2017-Aug-10 15:57N 51°18' E 004°16'0 0.0
2017-Aug-10 15:30N 51°18' E 004°16'0 0.0
2017-Aug-10 14:54N 51°18' E 004°16'0 0.0
2017-Aug-10 14:27N 51°18' E 004°16'0 0.0
2017-Aug-10 13:57N 51°18' E 004°16'0 0.0
2017-Aug-10 13:24N 51°18' E 004°16'0 0.0
2017-Aug-10 11:30N 51°18' E 004°16'  

Dump ship's entire track history